Toyomasa Maru — JJ3927 — position and weather

sailwx.info

Track history (hours):
 
Tides and Currents Weather Stations Pressure Air Temp Water Temp Dewpoint Dewpoint Depression Visibility Wind Speed Wind Dir Waves Ship Positions

Toyomasa Maru

Last reported at 2017-Feb-18 15:13 UTC. Time now 2017-Feb-20 06:26 UTC.
Position N 34°56' E 139°43'.

Length 101 m; draft 6.7 m.

Type: Tanker. MMSI: 431300401.

Date/timePositionNaut miles runAvg speedWind from/ knotsBaromVisibWave heightAir tempDewpointWater temp
2017-Feb-18 15:13N 34°56' E 139°43'711.1
2017-Feb-18 14:33N 35°04' E 139°44'1212.3
2017-Feb-18 13:33N 35°16' E 139°46'1010.3
2017-Feb-18 12:33N 35°26' E 139°46'1211.4
2017-Feb-18 11:33N 35°30' E 139°59'0 0.1
2017-Feb-18 05:33N 35°30' E 139°58'0 0.0
2017-Feb-18 03:29N 35°30' E 139°58'9 9.6
2017-Feb-18 02:33N 35°26' E 139°48'1110.5
2017-Feb-18 01:33N 35°16' E 139°46'1212.4
2017-Feb-18 00:33N 35°03' E 139°45'  
2017-Feb-13 11:33N 35°08' E 139°45'1212.0
2017-Feb-13 10:33N 35°20' E 139°43'1211.5
2017-Feb-13 09:33N 35°29' E 139°51'6 0.8
2017-Feb-13 01:28N 35°30' E 139°58'0 0.0
2017-Feb-12 19:24N 35°30' E 139°58'0 0.0
2017-Feb-12 18:30N 35°30' E 139°58'0 0.1
2017-Feb-12 17:09N 35°30' E 139°58'5 8.9
2017-Feb-12 16:33N 35°29' E 139°52'1212.0
2017-Feb-12 15:33N 35°19' E 139°44'1211.9
2017-Feb-12 14:33N 35°07' E 139°46'4 0.2
2017-Feb-11 19:33N 35°06' E 139°41'1111.3
2017-Feb-11 18:33N 35°16' E 139°45'1010.1
2017-Feb-11 17:33N 35°26' E 139°46'1211.6
2017-Feb-11 16:33N 35°31' E 139°59'2 0.3
2017-Feb-11 09:31N 35°30' E 140°01'7 7.3
2017-Feb-11 08:34N 35°29' E 139°53'1312.5
2017-Feb-11 07:33N 35°18' E 139°44'1312.5
2017-Feb-11 06:33N 35°06' E 139°45'  
Track history (hours):
 
Tides and Currents Weather Stations Pressure Air Temp Water Temp Dewpoint Dewpoint Depression Visibility Wind Speed Wind Dir Waves Ship Positions

Toyomasa Maru

Last reported at 2017-Feb-18 15:13 UTC. Time now 2017-Feb-20 06:26 UTC.
Position N 34°56' E 139°43'.

Length 101 m; draft 6.7 m.

Type: Tanker. MMSI: 431300401.

Date/timePositionNaut miles runAvg speedWind from/ knotsBaromVisibWave heightAir tempDewpointWater temp
2017-Feb-18 15:13N 34°56' E 139°43'711.1
2017-Feb-18 14:33N 35°04' E 139°44'1212.3
2017-Feb-18 13:33N 35°16' E 139°46'1010.3
2017-Feb-18 12:33N 35°26' E 139°46'1211.4
2017-Feb-18 11:33N 35°30' E 139°59'0 0.1
2017-Feb-18 05:33N 35°30' E 139°58'0 0.0
2017-Feb-18 03:29N 35°30' E 139°58'9 9.6
2017-Feb-18 02:33N 35°26' E 139°48'1110.5
2017-Feb-18 01:33N 35°16' E 139°46'1212.4
2017-Feb-18 00:33N 35°03' E 139°45'  
2017-Feb-13 11:33N 35°08' E 139°45'1212.0
2017-Feb-13 10:33N 35°20' E 139°43'1211.5
2017-Feb-13 09:33N 35°29' E 139°51'6 0.8
2017-Feb-13 01:28N 35°30' E 139°58'0 0.0
2017-Feb-12 19:24N 35°30' E 139°58'0 0.0
2017-Feb-12 18:30N 35°30' E 139°58'0 0.1
2017-Feb-12 17:09N 35°30' E 139°58'5 8.9
2017-Feb-12 16:33N 35°29' E 139°52'1212.0
2017-Feb-12 15:33N 35°19' E 139°44'1211.9
2017-Feb-12 14:33N 35°07' E 139°46'4 0.2
2017-Feb-11 19:33N 35°06' E 139°41'1111.3
2017-Feb-11 18:33N 35°16' E 139°45'1010.1
2017-Feb-11 17:33N 35°26' E 139°46'1211.6
2017-Feb-11 16:33N 35°31' E 139°59'2 0.3
2017-Feb-11 09:31N 35°30' E 140°01'7 7.3
2017-Feb-11 08:34N 35°29' E 139°53'1312.5
2017-Feb-11 07:33N 35°18' E 139°44'1312.5
2017-Feb-11 06:33N 35°06' E 139°45'  

Dump ship's entire track history